Latest Weather Observations for Mangrove Mountain

IDN60801

Issued at 7:52 am EST Tuesday 7 July 2020 (issued every 10 minutes, with the page automatically refreshed every 10 minutes)

About weather observations | Map of weather stations | Latest weather observations for NSW | Other Formats
Station Details ID: 061375 Name: MANGROVE MOUNTAIN AWS Lat: -33.29 Lon: 151.21 Height: 305.0 m
Data from the previous 72 hours. | See also: Recent months at Mangrove Mountain
Date/Time
EST
Temp
°C
App
Temp
°C
Dew
Point
°C
Rel
Hum
%
Delta-T
°C
Wind Press
QNH
hPa
Press
MSL
hPa
Rain since
9am
mm
Dir  Spd
km/h
Gust
km/h
Spd
kts
Gust
kts
07/07:30am 8.5 7.8 7.1 91 0.7 CALM 0 0 0 0 - - 0.0
07/07:00am 8.1 7.4 6.9 92 0.6 CALM 0 0 0 0 - - 0.0
07/06:30am 8.1 7.4 7.0 93 0.5 CALM 0 0 0 0 - - 0.0
07/06:00am 8.3 7.7 7.2 93 0.5 CALM 0 2 0 1 - - 0.0
07/05:30am 8.1 7.0 7.0 93 0.5 W 2 2 1 1 - - 0.0
07/05:00am 8.2 7.1 7.1 93 0.5 W 2 4 1 2 - - 0.0
07/04:30am 8.7 7.8 7.8 94 0.4 WSW 2 4 1 2 - - 0.0
07/04:00am 8.4 7.8 7.6 95 0.4 CALM 0 0 0 0 - - 0.0
07/03:30am 8.1 7.5 7.3 95 0.4 CALM 0 0 0 0 - - 0.0
07/03:00am 8.2 7.6 7.6 96 0.3 CALM 0 0 0 0 - - 0.0
07/02:30am 8.2 7.6 7.6 96 0.3 CALM 0 0 0 0 - - 0.0
07/02:00am 8.3 7.4 7.9 97 0.2 WSW 2 6 1 3 - - 0.0
07/01:30am 8.0 7.1 7.6 97 0.2 SE 2 4 1 2 - - 0.0
07/01:00am 7.8 6.8 7.5 98 0.1 SE 2 4 1 2 - - 0.0
07/12:30am 7.1 6.3 6.5 96 0.3 CALM 0 0 0 0 - - 0.0
07/12:00am 7.0 6.2 6.4 96 0.3 CALM 0 0 0 0 - - 0.0
 
Date/Time
EST
Temp
°C
App
Temp
°C
Dew
Point
°C
Rel
Hum
%
Delta-T
°C
Wind Press
QNH
hPa
Press
MSL
hPa
Rain since
9am
mm
Dir  Spd
km/h
Gust
km/h
Spd
kts
Gust
kts
06/11:30pm 6.6 5.6 5.7 94 0.4 CALM 0 0 0 0 - - 0.0
06/11:00pm 6.8 5.5 5.9 94 0.4 ESE 2 2 1 1 - - 0.0
06/10:30pm 6.7 5.3 5.7 93 0.5 ESE 2 2 1 1 - - 0.0
06/10:00pm 7.0 6.0 5.8 92 0.5 CALM 0 2 0 1 - - 0.0
06/09:30pm 8.0 7.3 6.9 93 0.5 CALM 0 2 0 1 - - 0.0
06/09:00pm 7.8 6.6 6.4 91 0.7 ESE 2 4 1 2 - - 0.0
06/08:30pm 8.5 7.5 7.4 93 0.5 ESE 2 4 1 2 - - 0.0
06/08:00pm 8.0 6.9 6.9 93 0.5 E 2 4 1 2 - - 0.0
06/07:30pm 7.3 5.6 6.1 92 0.6 E 4 4 2 2 - - 0.0
06/07:00pm 6.9 5.4 5.2 89 0.8 E 2 4 1 2 - - 0.0
06/06:30pm 7.4 6.4 5.4 87 0.9 CALM 0 4 0 2 - - 0.0
06/06:00pm 7.9 6.4 5.2 83 1.2 ENE 2 2 1 1 - - 0.0
06/05:30pm 8.6 6.6 4.6 76 1.8 ENE 4 6 2 3 - - 0.0
06/05:00pm 9.7 8.4 3.9 67 2.6 CALM 0 0 0 0 - - 0.0
06/04:30pm 13.0 11.9 4.9 58 3.8 CALM 0 0 0 0 - - 0.0
06/04:00pm 14.8 13.4 3.3 46 5.3 CALM 0 4 0 2 - - 0.0
06/03:30pm 15.2 13.8 3.7 46 5.4 CALM 0 4 0 2 - - 0.0
06/03:00pm 15.9 13.8 4.0 45 5.6 E 4 6 2 3 - - 0.0
06/02:30pm 15.6 13.5 3.7 45 5.6 SSW 4 7 2 4 - - 0.0
06/02:00pm 15.6 13.4 3.4 44 5.7 SSW 4 9 2 5 - - 0.0
06/01:30pm 15.2 13.1 3.7 46 5.4 SSW 4 7 2 4 - - 0.0
06/01:00pm 16.8 14.6 5.4 47 5.6 W 6 9 3 5 - - 0.0
06/12:30pm 15.0 13.2 5.2 52 4.7 SSW 4 9 2 5 - - 0.0
06/12:00pm 13.9 11.4 3.7 50 4.7 SW 6 11 3 6 - - 0.0
06/11:30am 14.2 12.1 5.6 56 4.1 W 6 11 3 6 - - 0.0
06/11:00am 12.9 10.7 5.1 59 3.7 WSW 6 11 3 6 - - 0.0
06/10:30am 13.2 10.8 5.4 59 3.7 W 7 13 4 7 - - 0.0
06/10:00am 11.7 9.8 4.9 63 3.2 NW 4 7 2 4 - - 0.0
06/09:30am 11.7 9.6 5.6 66 2.9 NW 6 9 3 5 - - 0.0
06/09:00am 10.2 7.8 5.2 71 2.3 WNW 7 9 4 5 - - 0.0
06/08:30am 8.3 6.1 5.1 80 1.5 NW 6 9 3 5 - - 0.0
06/08:00am 6.0 4.0 4.5 90 0.7 WNW 4 7 2 4 - - 0.0
06/07:30am 4.2 1.9 2.7 90 0.6 NW 4 6 2 3 - - 0.0
06/07:00am 4.3 1.6 2.7 89 0.7 WNW 6 9 3 5 - - 0.0
06/06:30am 5.5 2.9 4.2 91 0.6 WNW 7 15 4 8 - - 0.0
06/06:00am 4.8 2.3 3.6 92 0.5 NW 6 9 3 5 - - 0.0
06/05:30am 4.6 1.9 3.9 95 0.3 WNW 7 11 4 6 - - 0.0
06/05:00am 4.0 1.4 3.4 96 0.3 NW 6 9 3 5 - - 0.0
06/04:30am 3.9 1.7 3.5 97 0.2 NW 4 7 2 4 - - 0.0
06/04:00am 3.9 1.7 3.5 97 0.2 NW 4 6 2 3 - - 0.0
06/03:30am 2.9 1.3 2.2 95 0.3 CALM 0 0 0 0 - - 0.0
06/03:00am 2.9 1.2 2.0 94 0.4 CALM 0 0 0 0 - - 0.0
06/02:30am 3.3 1.7 2.6 95 0.3 CALM 0 0 0 0 - - 0.0
06/02:00am 4.0 2.2 3.3 95 0.3 W 2 4 1 2 - - 0.0
06/01:30am 3.7 2.1 2.7 93 0.4 CALM 0 2 0 1 - - 0.0
06/01:00am 3.3 1.6 2.1 92 0.5 CALM 0 0 0 0 - - 0.0
06/12:30am 3.9 2.3 2.6 91 0.5 CALM 0 0 0 0 - - 0.0
06/12:00am 4.3 2.0 3.0 91 0.5 WNW 4 6 2 3 - - 0.0
 
Date/Time
EST
Temp
°C
App
Temp
°C
Dew
Point
°C
Rel
Hum
%
Delta-T
°C
Wind Press
QNH
hPa
Press
MSL
hPa
Rain since
9am
mm
Dir  Spd
km/h
Gust
km/h
Spd
kts
Gust
kts
05/11:30pm 4.9 3.1 3.4 90 0.6 WSW 2 4 1 2 - - 0.0
05/11:00pm 5.5 3.9 4.3 92 0.5 WSW 2 4 1 2 - - 0.0
05/10:30pm 4.6 3.2 3.3 91 0.5 CALM 0 0 0 0 - - 0.0
05/10:00pm 4.7 2.8 2.9 88 0.7 NW 2 2 1 1 - - 0.0
05/09:30pm 5.9 3.9 4.2 89 0.7 WNW 4 6 2 3 - - 0.0
05/09:00pm 5.7 4.4 4.0 89 0.7 CALM 0 7 0 4 - - 0.0
05/08:30pm 5.8 4.4 3.8 87 0.9 CALM 0 0 0 0 - - 0.0
05/08:00pm 5.9 4.5 3.6 85 1.0 CALM 0 0 0 0 - - 0.0
05/07:30pm 6.0 4.6 3.5 84 1.1 CALM 0 0 0 0 - - 0.0
05/07:00pm 6.6 4.9 3.8 82 1.2 E 2 4 1 2 - - 0.0
05/06:30pm 6.8 4.6 3.2 78 1.5 E 4 6 2 3 - - 0.0
05/06:00pm 9.0 7.0 4.2 72 2.1 SE 4 7 2 4 - - 0.0
05/05:30pm 8.0 6.5 2.9 70 2.2 CALM 0 0 0 0 - - 0.0
05/05:00pm 10.3 8.2 1.9 56 3.6 S 2 2 1 1 - - 0.0
05/04:30pm 13.3 10.9 2.2 47 4.9 SSE 4 7 2 4 - - 0.0
05/04:00pm 14.8 12.3 1.3 40 6.0 W 4 6 2 3 - - 0.0
05/03:30pm 16.3 14.2 1.6 37 6.6 SW 2 6 1 3 - - 0.0
05/03:00pm 15.8 13.2 0.8 36 6.6 WSW 4 7 2 4 - - 0.0
05/02:30pm 15.4 11.8 0.8 37 6.4 SW 9 17 5 9 - - 0.0
05/02:00pm 15.2 11.8 -0.5 34 6.7 SSW 7 15 4 8 - - 0.0
05/01:30pm 15.2 11.8 -0.9 33 6.8 WSW 7 13 4 7 - - 0.0
05/01:00pm 15.8 12.7 1.5 38 6.4 WSW 7 17 4 9 - - 0.0
05/12:30pm 14.7 10.8 1.3 40 5.9 WSW 11 19 6 10 - - 0.0
05/12:00pm 14.6 10.8 1.5 41 5.8 WSW 11 24 6 13 - - 0.0
05/11:30am 14.1 10.4 2.4 45 5.3 W 11 19 6 10 - - 0.0
05/11:00am 13.3 9.5 1.9 46 5.0 W 11 19 6 10 - - 0.0
05/10:30am 13.0 9.5 3.7 53 4.3 W 11 17 6 9 - - 0.0
05/10:00am 12.5 10.0 4.5 58 3.7 WNW 7 15 4 8 - - 0.0
05/09:30am 10.9 7.8 3.7 61 3.2 W 9 19 5 10 - - 0.0
05/09:00am 10.0 7.0 4.0 66 2.7 WNW 9 13 5 7 - - 0.0
05/08:30am 8.1 4.6 3.4 72 2.0 NW 11 17 6 9 - - 0.0
05/08:00am 6.3 3.5 2.9 79 1.4 NW 7 13 4 7 - - 0.0
05/07:30am 5.0 2.1 2.5 84 1.0 WNW 7 11 4 6 - - 0.0
05/07:00am 4.9 2.1 2.3 83 1.1 WNW 6 9 3 5 - - 0.0
05/06:30am 4.7 1.7 2.2 84 1.0 WNW 7 11 4 6 - - 0.0
05/06:00am 4.7 1.7 2.1 83 1.1 WNW 7 13 4 7 - - 0.0
05/05:30am 4.6 1.6 2.3 85 0.9 WNW 7 11 4 6 - - 0.0
05/05:00am 4.0 1.1 1.7 85 0.9 WNW 6 9 3 5 - - 0.0
05/04:30am 4.0 1.2 1.9 86 0.8 WNW 6 11 3 6 - - 0.0
05/04:00am 4.0 1.1 1.5 84 1.0 NW 6 9 3 5 - - 0.0
05/03:30am 3.9 0.9 0.9 81 1.2 WNW 6 7 3 4 - - 0.0
05/03:00am 4.4 1.4 0.9 78 1.4 WNW 6 9 3 5 - - 0.0
05/02:30am 5.2 1.7 1.1 75 1.6 WNW 9 15 5 8 - - 0.0
05/02:00am 5.2 1.7 1.0 74 1.7 NW 9 13 5 7 - - 0.0
05/01:30am 5.4 1.8 0.8 72 1.8 WNW 9 15 5 8 - - 0.0
05/01:00am 5.3 1.7 0.5 71 1.9 WNW 9 15 5 8 - - 0.0
05/12:30am 5.8 1.8 0.4 68 2.1 WNW 11 19 6 10 - - 0.0
05/12:00am 5.7 2.0 -0.1 66 2.3 WNW 9 17 5 9 - - 0.0
 
Date/Time
EST
Temp
°C
App
Temp
°C
Dew
Point
°C
Rel
Hum
%
Delta-T
°C
Wind Press
QNH
hPa
Press
MSL
hPa
Rain since
9am
mm
Dir  Spd
km/h
Gust
km/h
Spd
kts
Gust
kts
04/11:30pm 6.0 2.3 -0.3 64 2.5 WNW 9 15 5 8 - - 0.0
04/11:00pm 6.0 2.2 -0.5 63 2.5 WNW 9 15 5 8 - - 0.0
04/10:30pm 6.3 2.9 -0.7 61 2.7 WNW 7 13 4 7 - - 0.0
04/10:00pm 6.4 2.6 -1.0 59 2.8 WNW 9 15 5 8 - - 0.0
04/09:30pm 6.3 2.5 -1.1 59 2.8 WNW 9 13 5 7 - - 0.0
04/09:00pm 6.7 2.8 -1.2 57 3.0 WNW 9 15 5 8 - - 0.0
04/08:30pm 7.5 3.6 -1.2 54 3.4 W 9 17 5 9 - - 0.0
04/08:00pm 7.5 3.6 -1.2 54 3.4 WNW 9 19 5 10 - - 0.0
04/07:30pm 7.8 3.9 -1.2 53 3.5 W 9 17 5 9 - - 0.0
04/07:00pm 7.5 3.8 -0.2 58 3.1 W 9 17 5 9 - - 0.0
04/06:30pm 7.0 3.8 0.7 64 2.5 W 7 13 4 7 - - 0.0
04/06:00pm 4.8 2.1 0.6 74 1.7 WSW 4 6 2 3 - - 0.0
04/05:30pm 5.8 3.9 0.4 68 2.1 CALM 0 0 0 0 - - 0.0
04/05:00pm 7.5 5.5 0.0 59 3.0 CALM 0 2 0 1 - - 0.0
04/04:30pm 10.8 7.9 -1.3 43 4.8 WSW 4 7 2 4 - - 0.0
04/04:00pm 12.9 9.4 -2.6 34 6.2 WSW 6 9 3 5 - - 0.0
04/03:30pm 13.9 10.5 -2.1 33 6.5 WSW 6 11 3 6 - - 0.0
04/03:00pm 14.2 10.2 -2.2 32 6.7 WSW 9 17 5 9 - - 0.0
04/02:30pm 13.8 8.9 -3.0 31 6.7 WSW 13 24 7 13 - - 0.0
04/02:00pm 13.7 8.9 -2.7 32 6.6 W 13 24 7 13 - - 0.0
04/01:30pm 12.9 8.5 -2.2 35 6.1 WSW 11 20 6 11 - - 0.0
04/01:00pm 12.4 8.5 -1.5 38 5.6 SW 9 19 5 10 - - 0.0
04/12:30pm 12.4 8.3 -0.5 41 5.3 WSW 11 19 6 10 - - 0.0
04/12:00pm 12.8 9.1 2.4 49 4.6 W 11 20 6 11 - - 0.0
04/11:30am 11.9 7.9 2.6 53 4.1 W 13 24 7 13 - - 0.0
04/11:00am 11.1 7.7 4.1 62 3.2 W 11 19 6 10 - - 0.0
04/10:30am 9.5 5.6 3.3 65 2.7 WSW 13 28 7 15 - - 0.0
04/10:00am 9.0 5.0 3.0 66 2.6 W 13 24 7 13 - - 0.0
04/09:30am 8.8 5.2 2.8 66 2.6 WSW 11 24 6 13 - - 0.0
04/09:00am 8.2 4.9 2.7 68 2.4 W 9 17 5 9 - - 0.0
04/08:30am 7.8 4.6 3.3 73 1.9 W 9 15 5 8 - - 0.0
04/08:00am 6.7 4.0 3.7 81 1.3 W 7 9 4 5 - - 0.0

Other formats

Comma delimited format used in spreadsheet applications
http://www.bom.gov.au/fwo/IDN60801/IDN60801.95774.axf

JavaScript Object Notation format (JSON) in row-major order
http://www.bom.gov.au/fwo/IDN60801/IDN60801.95774.json

Data quality

Most of these data are generated automatically and are frequently updated. Quality checks on data are not normally performed. It is possible for incorrect values to appear. Refer to information at About Latest Weather Observations and please check the disclaimer before using these data.